KABR/ABR METAR and TAF weather

Enter ICAO airport designator
Station Type Date Time Source
KABR METAR 2018/01/24 06:53 UTC NOAA

KABR 240653Z AUTO 04007KT 4SM BR OVC003 M07/M08 A3019 RMK AO2 SLP242 I1000 T10721078


Station Type Date Time Source
KABR Decoded METAR 2018/01/24 06:53 UTC NOAA

ABERDEEN REGIONAL AIRPORT, SD, United States (KABR) 45-27N 098-25W 400M
Jan 24, 2018 - 01:53 AM EST / 2018.01.24 0653 UTC
Wind: from the NE (040 degrees) at 8 MPH (7 KT):0
Visibility: 4 mile(s):0
Sky conditions: overcast
Weather: mist
Temperature: 19.0 F (-7.2 C)
Windchill: 8 F (-13 C):1
Dew Point: 18.0 F (-7.8 C)
Relative Humidity: 95%
Pressure (altimeter): 30.19 in. Hg (1022 hPa)
ob: KABR 240653Z AUTO 04007KT 4SM BR OVC003 M07/M08 A3019 RMK AO2 SLP242 I1000 T10721078
cycle: 7

Station Type Date Time Source
KABR TAF 2018/01/24 06:39 UTC NOAA

TAF
AMD KABR 240536Z 2406/2506 VRB03KT 4SM BR BKN004
FM240800 VRB03KT 2SM BR BKN003
FM241200 21004KT 1/2SM FG BKN003
FM241600 19005KT 2SM BR BKN025
FM241800 19006KT P6SM SCT200
FM250400 16004KT 5SM BR BKN050


Example: see airport list